KPOF/POF METAR and TAF weather

Enter ICAO airport designator
Station Type Date Time Source
KPOF METAR 2019/02/20 06:53 UTC NOAA

KPOF 200653Z AUTO 05009KT 3SM RA BR OVC007 02/02 A2992 RMK AO2 LTG DSNT SE AND S SLP138 P0015 T00170017


Station Type Date Time Source
KPOF Decoded METAR 2019/02/20 06:53 UTC NOAA

POPLAR BLUFF MUN AIRPORT, MO, United States (KPOF) 36-46N 090-19W 100M
Feb 20, 2019 - 01:53 AM EST / 2019.02.20 0653 UTC
Wind: from the NE (050 degrees) at 10 MPH (9 KT):0
Visibility: 3 mile(s):0
Sky conditions: overcast
Weather: rain; mist; Lightning observed
Precipitation last hour: 0.15 inches
Temperature: 35.1 F (1.7 C)
Dew Point: 35.1 F (1.7 C)
Relative Humidity: 100%
Pressure (altimeter): 29.92 in. Hg (1013 hPa)
ob: KPOF 200653Z AUTO 05009KT 3SM RA BR OVC007 02/02 A2992 RMK AO2 LTG DSNT SE AND S SLP138 P0015 T00170017
cycle: 7

Station Type Date Time Source
KPOF TAF UTC NOAA

Error!


Example: see airport list